The Weather Page

Only for information, data not for operational purposes.

ELLX Aeronautical Report by METEOLUX

ELLX Current METAR and TAF

ELLX 280520Z 17007KT 0300 R24/0800N -RA FG VV003 03/03 Q1006 NOSIG

TAF ELLX 271700Z 2718/2824 22007KT 3000 BR BKN006 TEMPO 2718/2724 0200 FG OVC001 TEMPO 2800/2811 1200 RADZ OVC004 BECMG 2811/2813 26012KT 6000 BKN012 PROB40 TEMPO 2813/2821 26015G25KT BKN015

METAR's and TAF's

METAR/TAF from US-NOAA-ADDS. Enter one or more ICAO codes separated by spaces:

METAR TAF 

A list of weather stations and their ICAO and IATA codes is found on this page.

Flight Preparation

EUMETSAT Infrared

Eumetsat Infrared

METEOX Radar

METEOX Radar Image

Comments are closed.